sensor_id;sensor_type;location;lat;lon;timestamp;temperature;humidity
58513;DHT22;44302;47.914;10.642;2022-10-31T06:33:29;8.50;99.90
58513;DHT22;44302;47.914;10.642;2022-10-31T06:38:21;8.60;99.90
58513;DHT22;44302;47.914;10.642;2022-10-31T07:19:35;11.00;99.90
58513;DHT22;44302;47.914;10.642;2022-10-31T07:31:46;11.20;99.90
58513;DHT22;44302;47.914;10.642;2022-10-31T07:43:56;13.20;99.90
58513;DHT22;44302;47.914;10.642;2022-10-31T07:48:48;13.60;99.90
58513;DHT22;44302;47.914;10.642;2022-10-31T07:51:13;14.30;99.90
58513;DHT22;44302;47.914;10.642;2022-10-31T07:53:39;15.20;99.90
58513;DHT22;44302;47.914;10.642;2022-10-31T07:56:05;15.90;99.90
58513;DHT22;44302;47.914;10.642;2022-10-31T08:00:57;16.20;99.90
58513;DHT22;44302;47.914;10.642;2022-10-31T08:03:23;16.70;99.90
58513;DHT22;44302;47.914;10.642;2022-10-31T08:05:48;16.80;99.90
58513;DHT22;44302;47.914;10.642;2022-10-31T08:08:15;16.40;99.90
58513;DHT22;44302;47.914;10.642;2022-10-31T08:10:41;15.50;99.90
58513;DHT22;44302;47.914;10.642;2022-10-31T08:13:09;15.00;99.90
58513;DHT22;44302;47.914;10.642;2022-10-31T08:15:35;14.90;99.90
58513;DHT22;44302;47.914;10.642;2022-10-31T08:18:03;14.80;99.90
58513;DHT22;44302;47.914;10.642;2022-10-31T08:20:29;15.20;99.90
58513;DHT22;44302;47.914;10.642;2022-10-31T08:23:00;15.50;99.90
58513;DHT22;44302;47.914;10.642;2022-10-31T08:25:28;16.00;99.90
58513;DHT22;44302;47.914;10.642;2022-10-31T08:27:55;16.00;99.90
58513;DHT22;44302;47.914;10.642;2022-10-31T08:30:22;16.60;99.90
58513;DHT22;44302;47.914;10.642;2022-10-31T08:32:57;17.30;99.90
58513;DHT22;44302;47.914;10.642;2022-10-31T08:35:23;17.70;99.90
58513;DHT22;44302;47.914;10.642;2022-10-31T08:37:53;18.00;99.90
58513;DHT22;44302;47.914;10.642;2022-10-31T08:40:19;18.10;99.90
58513;DHT22;44302;47.914;10.642;2022-10-31T08:42:45;18.00;99.90
58513;DHT22;44302;47.914;10.642;2022-10-31T08:45:10;18.30;99.90
58513;DHT22;44302;47.914;10.642;2022-10-31T08:47:36;19.10;99.90
58513;DHT22;44302;47.914;10.642;2022-10-31T08:50:02;19.40;99.90
58513;DHT22;44302;47.914;10.642;2022-10-31T08:52:28;19.30;99.90
58513;DHT22;44302;47.914;10.642;2022-10-31T08:54:54;19.20;99.90
58513;DHT22;44302;47.914;10.642;2022-10-31T08:57:20;19.30;99.90
58513;DHT22;44302;47.914;10.642;2022-10-31T08:59:45;19.50;99.90
58513;DHT22;44302;47.914;10.642;2022-10-31T09:02:11;19.70;99.90
58513;DHT22;44302;47.914;10.642;2022-10-31T09:04:36;20.00;99.90
58513;DHT22;44302;47.914;10.642;2022-10-31T09:07:02;19.90;99.80
58513;DHT22;44302;47.914;10.642;2022-10-31T09:09:28;20.10;99.90
58513;DHT22;44302;47.914;10.642;2022-10-31T09:11:54;20.10;99.40
58513;DHT22;44302;47.914;10.642;2022-10-31T09:14:19;20.10;99.90
58513;DHT22;44302;47.914;10.642;2022-10-31T09:16:45;20.40;99.80
58513;DHT22;44302;47.914;10.642;2022-10-31T09:19:10;20.60;98.50
58513;DHT22;44302;47.914;10.642;2022-10-31T09:21:36;20.70;98.40
58513;DHT22;44302;47.914;10.642;2022-10-31T09:24:02;20.70;99.30
58513;DHT22;44302;47.914;10.642;2022-10-31T09:26:27;20.80;99.10
58513;DHT22;44302;47.914;10.642;2022-10-31T09:28:53;21.10;98.50
58513;DHT22;44302;47.914;10.642;2022-10-31T09:31:19;20.90;99.90
58513;DHT22;44302;47.914;10.642;2022-10-31T09:33:44;20.90;99.90
58513;DHT22;44302;47.914;10.642;2022-10-31T09:36:10;20.60;99.90
58513;DHT22;44302;47.914;10.642;2022-10-31T09:38:36;20.40;99.90
58513;DHT22;44302;47.914;10.642;2022-10-31T09:41:14;20.20;99.90
58513;DHT22;44302;47.914;10.642;2022-10-31T09:46:31;19.70;99.90
58513;DHT22;44302;47.914;10.642;2022-10-31T09:49:22;19.60;99.90
58513;DHT22;44302;47.914;10.642;2022-10-31T09:51:56;19.70;99.90
58513;DHT22;44302;47.914;10.642;2022-10-31T09:56:56;20.40;99.90
58513;DHT22;44302;47.914;10.642;2022-10-31T09:59:34;20.40;99.90
58513;DHT22;44302;47.914;10.642;2022-10-31T10:02:04;20.60;99.90
58513;DHT22;44302;47.914;10.642;2022-10-31T10:04:56;20.90;99.90
58513;DHT22;44302;47.914;10.642;2022-10-31T10:10:10;21.40;99.90
58513;DHT22;44302;47.914;10.642;2022-10-31T10:13:03;21.60;99.90
58513;DHT22;44302;47.914;10.642;2022-10-31T10:16:03;21.70;99.90
58513;DHT22;44302;47.914;10.642;2022-10-31T10:18:48;21.60;99.90
58513;DHT22;44302;47.914;10.642;2022-10-31T10:24:03;21.20;99.90
58513;DHT22;44302;47.914;10.642;2022-10-31T10:26:40;20.80;99.90
58513;DHT22;44302;47.914;10.642;2022-10-31T10:31:53;20.20;99.90
58513;DHT22;44302;47.914;10.642;2022-10-31T10:34:30;19.90;99.90
58513;DHT22;44302;47.914;10.642;2022-10-31T10:37:12;19.80;99.90
58513;DHT22;44302;47.914;10.642;2022-10-31T10:39:45;19.70;99.90
58513;DHT22;44302;47.914;10.642;2022-10-31T10:42:16;19.60;99.90
58513;DHT22;44302;47.914;10.642;2022-10-31T10:45:15;19.40;99.90
58513;DHT22;44302;47.914;10.642;2022-10-31T10:48:24;19.30;99.90
58513;DHT22;44302;47.914;10.642;2022-10-31T10:50:52;19.20;99.90
58513;DHT22;44302;47.914;10.642;2022-10-31T10:53:46;19.10;99.90
58513;DHT22;44302;47.914;10.642;2022-10-31T10:59:25;19.10;99.90
58513;DHT22;44302;47.914;10.642;2022-10-31T11:01:52;19.00;99.90
58513;DHT22;44302;47.914;10.642;2022-10-31T11:04:45;19.10;99.90
58513;DHT22;44302;47.914;10.642;2022-10-31T11:07:12;19.20;99.90
58513;DHT22;44302;47.914;10.642;2022-10-31T11:09:38;19.20;99.90
58513;DHT22;44302;47.914;10.642;2022-10-31T11:12:28;19.30;99.90
58513;DHT22;44302;47.914;10.642;2022-10-31T11:14:59;19.70;99.90
58513;DHT22;44302;47.914;10.642;2022-10-31T11:17:33;20.30;99.90
58513;DHT22;44302;47.914;10.642;2022-10-31T11:22:36;21.40;99.90
58513;DHT22;44302;47.914;10.642;2022-10-31T11:25:23;21.90;99.90
58513;DHT22;44302;47.914;10.642;2022-10-31T11:30:30;22.70;99.90
58513;DHT22;44302;47.914;10.642;2022-10-31T11:32:56;23.50;99.90
58513;DHT22;44302;47.914;10.642;2022-10-31T11:35:24;23.80;99.90
58513;DHT22;44302;47.914;10.642;2022-10-31T11:37:52;23.80;99.90
58513;DHT22;44302;47.914;10.642;2022-10-31T11:40:24;23.80;99.90
58513;DHT22;44302;47.914;10.642;2022-10-31T11:42:51;23.50;99.90
58513;DHT22;44302;47.914;10.642;2022-10-31T11:47:54;24.20;99.90
58513;DHT22;44302;47.914;10.642;2022-10-31T11:50:25;24.50;99.90
58513;DHT22;44302;47.914;10.642;2022-10-31T11:52:52;24.40;99.90
58513;DHT22;44302;47.914;10.642;2022-10-31T11:55:38;24.40;99.90
58513;DHT22;44302;47.914;10.642;2022-10-31T11:58:18;24.90;99.90
58513;DHT22;44302;47.914;10.642;2022-10-31T12:00:50;25.00;99.90
58513;DHT22;44302;47.914;10.642;2022-10-31T12:05:53;24.90;99.40
58513;DHT22;44302;47.914;10.642;2022-10-31T12:08:29;25.00;99.80
58513;DHT22;44302;47.914;10.642;2022-10-31T12:13:48;25.30;99.00
58513;DHT22;44302;47.914;10.642;2022-10-31T12:27:16;22.70;99.90
58513;DHT22;44302;47.914;10.642;2022-10-31T12:30:18;22.00;99.90
58513;DHT22;44302;47.914;10.642;2022-10-31T12:41:36;22.90;99.90
58513;DHT22;44302;47.914;10.642;2022-10-31T12:58:00;26.80;98.10
58513;DHT22;44302;47.914;10.642;2022-10-31T13:00:28;26.50;98.40
58513;DHT22;44302;47.914;10.642;2022-10-31T13:03:09;27.50;97.00
58513;DHT22;44302;47.914;10.642;2022-10-31T13:05:48;27.60;95.60
58513;DHT22;44302;47.914;10.642;2022-10-31T13:08:19;27.50;96.20
58513;DHT22;44302;47.914;10.642;2022-10-31T13:11:13;26.90;95.80
58513;DHT22;44302;47.914;10.642;2022-10-31T13:13:41;27.00;95.70
58513;DHT22;44302;47.914;10.642;2022-10-31T13:16:20;25.60;96.90
58513;DHT22;44302;47.914;10.642;2022-10-31T13:21:49;21.70;99.90
58513;DHT22;44302;47.914;10.642;2022-10-31T13:26:59;21.30;99.90
58513;DHT22;44302;47.914;10.642;2022-10-31T13:29:40;22.30;99.90
58513;DHT22;44302;47.914;10.642;2022-10-31T13:32:09;24.40;99.90
58513;DHT22;44302;47.914;10.642;2022-10-31T13:34:36;24.70;99.90
58513;DHT22;44302;47.914;10.642;2022-10-31T13:45:28;22.40;99.90
58513;DHT22;44302;47.914;10.642;2022-10-31T13:48:00;21.20;99.90
58513;DHT22;44302;47.914;10.642;2022-10-31T13:50:31;20.70;99.90
58513;DHT22;44302;47.914;10.642;2022-10-31T13:53:20;20.40;99.90
58513;DHT22;44302;47.914;10.642;2022-10-31T13:55:48;20.30;99.90
58513;DHT22;44302;47.914;10.642;2022-10-31T13:58:26;20.00;99.90
58513;DHT22;44302;47.914;10.642;2022-10-31T14:01:12;19.90;99.90
58513;DHT22;44302;47.914;10.642;2022-10-31T14:03:40;19.80;99.90
58513;DHT22;44302;47.914;10.642;2022-10-31T14:06:07;19.70;99.90
58513;DHT22;44302;47.914;10.642;2022-10-31T14:08:35;19.70;99.90
58513;DHT22;44302;47.914;10.642;2022-10-31T14:11:03;19.60;99.90
58513;DHT22;44302;47.914;10.642;2022-10-31T14:13:41;19.60;99.90
58513;DHT22;44302;47.914;10.642;2022-10-31T14:16:26;19.50;99.90
58513;DHT22;44302;47.914;10.642;2022-10-31T14:19:03;19.50;99.90
58513;DHT22;44302;47.914;10.642;2022-10-31T14:21:35;19.20;99.90
58513;DHT22;44302;47.914;10.642;2022-10-31T14:26:53;19.20;99.90
58513;DHT22;44302;47.914;10.642;2022-10-31T14:31:51;19.00;99.90
58513;DHT22;44302;47.914;10.642;2022-10-31T14:34:36;18.90;99.90
58513;DHT22;44302;47.914;10.642;2022-10-31T14:51:21;18.70;99.90
58513;DHT22;44302;47.914;10.642;2022-10-31T14:53:50;18.70;99.90
58513;DHT22;44302;47.914;10.642;2022-10-31T14:56:39;18.60;99.90
58513;DHT22;44302;47.914;10.642;2022-10-31T14:59:14;18.50;99.90
58513;DHT22;44302;47.914;10.642;2022-10-31T15:01:53;18.50;99.90
58513;DHT22;44302;47.914;10.642;2022-10-31T15:04:23;18.40;99.90
58513;DHT22;44302;47.914;10.642;2022-10-31T15:07:02;18.40;99.90
58513;DHT22;44302;47.914;10.642;2022-10-31T15:09:33;18.40;99.90
58513;DHT22;44302;47.914;10.642;2022-10-31T15:12:00;18.30;99.90
58513;DHT22;44302;47.914;10.642;2022-10-31T15:14:30;18.30;99.90
58513;DHT22;44302;47.914;10.642;2022-10-31T15:16:58;18.20;99.90
58513;DHT22;44302;47.914;10.642;2022-10-31T15:19:26;18.10;99.90
58513;DHT22;44302;47.914;10.642;2022-10-31T15:21:54;17.90;99.90
58513;DHT22;44302;47.914;10.642;2022-10-31T15:24:24;17.80;99.90
58513;DHT22;44302;47.914;10.642;2022-10-31T15:26:54;17.70;99.90
58513;DHT22;44302;47.914;10.642;2022-10-31T15:29:26;17.60;99.90
58513;DHT22;44302;47.914;10.642;2022-10-31T15:34:30;17.20;99.90
58513;DHT22;44302;47.914;10.642;2022-10-31T15:36:58;17.10;99.90
58513;DHT22;44302;47.914;10.642;2022-10-31T15:39:24;17.00;99.90
58513;DHT22;44302;47.914;10.642;2022-10-31T15:41:55;16.90;99.90
58513;DHT22;44302;47.914;10.642;2022-10-31T15:44:29;16.70;99.90
58513;DHT22;44302;47.914;10.642;2022-10-31T15:47:03;16.60;99.90
58513;DHT22;44302;47.914;10.642;2022-10-31T15:49:36;16.50;99.90
58513;DHT22;44302;47.914;10.642;2022-10-31T15:54:35;16.40;99.90
58513;DHT22;44302;47.914;10.642;2022-10-31T15:57:02;16.30;99.90
58513;DHT22;44302;47.914;10.642;2022-10-31T15:59:28;16.10;99.90
58513;DHT22;44302;47.914;10.642;2022-10-31T16:02:01;15.80;99.90
58513;DHT22;44302;47.914;10.642;2022-10-31T16:04:27;15.70;99.90
58513;DHT22;44302;47.914;10.642;2022-10-31T16:07:13;15.70;99.90
58513;DHT22;44302;47.914;10.642;2022-10-31T16:10:21;15.60;99.90
58513;DHT22;44302;47.914;10.642;2022-10-31T16:12:47;15.40;99.90
58513;DHT22;44302;47.914;10.642;2022-10-31T16:15:17;15.30;99.90
58513;DHT22;44302;47.914;10.642;2022-10-31T16:17:46;15.20;99.90
58513;DHT22;44302;47.914;10.642;2022-10-31T16:20:23;15.10;99.90
58513;DHT22;44302;47.914;10.642;2022-10-31T16:22:51;14.90;99.90
58513;DHT22;44302;47.914;10.642;2022-10-31T16:25:38;14.80;99.90
58513;DHT22;44302;47.914;10.642;2022-10-31T16:28:18;14.80;99.90
58513;DHT22;44302;47.914;10.642;2022-10-31T16:30:45;14.70;99.90
58513;DHT22;44302;47.914;10.642;2022-10-31T16:33:37;14.60;99.90
58513;DHT22;44302;47.914;10.642;2022-10-31T16:36:35;14.60;99.90
58513;DHT22;44302;47.914;10.642;2022-10-31T16:39:04;14.40;99.90
58513;DHT22;44302;47.914;10.642;2022-10-31T16:41:30;14.30;99.90
58513;DHT22;44302;47.914;10.642;2022-10-31T16:43:57;14.30;99.90
58513;DHT22;44302;47.914;10.642;2022-10-31T16:46:24;14.20;99.90
58513;DHT22;44302;47.914;10.642;2022-10-31T16:48:51;14.10;99.90
58513;DHT22;44302;47.914;10.642;2022-10-31T16:51:17;14.10;99.90
58513;DHT22;44302;47.914;10.642;2022-10-31T16:53:42;14.00;99.90
58513;DHT22;44302;47.914;10.642;2022-10-31T16:56:20;13.90;99.90
58513;DHT22;44302;47.914;10.642;2022-10-31T16:58:47;13.80;99.90
58513;DHT22;44302;47.914;10.642;2022-10-31T17:01:13;13.80;99.90
58513;DHT22;44302;47.914;10.642;2022-10-31T17:03:39;13.70;99.90
58513;DHT22;44302;47.914;10.642;2022-10-31T17:06:04;13.70;99.90
58513;DHT22;44302;47.914;10.642;2022-10-31T17:08:30;13.60;99.90
58513;DHT22;44302;47.914;10.642;2022-10-31T17:10:57;13.60;99.90
58513;DHT22;44302;47.914;10.642;2022-10-31T17:13:26;13.50;99.90
58513;DHT22;44302;47.914;10.642;2022-10-31T17:15:55;13.50;99.90
58513;DHT22;44302;47.914;10.642;2022-10-31T17:18:21;13.40;99.90
58513;DHT22;44302;47.914;10.642;2022-10-31T17:20:48;13.30;99.90
58513;DHT22;44302;47.914;10.642;2022-10-31T17:23:15;13.20;99.90
58513;DHT22;44302;47.914;10.642;2022-10-31T17:25:41;13.20;99.90
58513;DHT22;44302;47.914;10.642;2022-10-31T17:28:11;13.10;99.90
58513;DHT22;44302;47.914;10.642;2022-10-31T17:30:39;13.00;99.90
58513;DHT22;44302;47.914;10.642;2022-10-31T17:33:05;13.00;99.90
58513;DHT22;44302;47.914;10.642;2022-10-31T17:35:31;12.90;99.90
58513;DHT22;44302;47.914;10.642;2022-10-31T17:37:56;12.90;99.90
58513;DHT22;44302;47.914;10.642;2022-10-31T17:42:53;12.80;99.90
58513;DHT22;44302;47.914;10.642;2022-10-31T17:45:19;12.80;99.90
58513;DHT22;44302;47.914;10.642;2022-10-31T17:47:47;12.70;99.90
58513;DHT22;44302;47.914;10.642;2022-10-31T17:50:15;12.70;99.90
58513;DHT22;44302;47.914;10.642;2022-10-31T17:52:40;12.70;99.90
58513;DHT22;44302;47.914;10.642;2022-10-31T17:55:06;12.60;99.90
58513;DHT22;44302;47.914;10.642;2022-10-31T17:57:33;12.50;99.90
58513;DHT22;44302;47.914;10.642;2022-10-31T18:00:00;12.50;99.90
58513;DHT22;44302;47.914;10.642;2022-10-31T18:02:25;12.50;99.90
58513;DHT22;44302;47.914;10.642;2022-10-31T18:07:17;12.50;99.90
58513;DHT22;44302;47.914;10.642;2022-10-31T18:09:47;12.50;99.90
58513;DHT22;44302;47.914;10.642;2022-10-31T18:12:14;12.40;99.90
58513;DHT22;44302;47.914;10.642;2022-10-31T18:14:41;12.40;99.90
58513;DHT22;44302;47.914;10.642;2022-10-31T18:17:07;12.40;99.90
58513;DHT22;44302;47.914;10.642;2022-10-31T18:21:59;12.40;99.90
58513;DHT22;44302;47.914;10.642;2022-10-31T18:24:25;12.40;99.90
58513;DHT22;44302;47.914;10.642;2022-10-31T18:26:52;12.40;99.90
58513;DHT22;44302;47.914;10.642;2022-10-31T18:31:43;12.30;99.90
58513;DHT22;44302;47.914;10.642;2022-10-31T18:34:15;12.30;99.90
58513;DHT22;44302;47.914;10.642;2022-10-31T18:43:59;12.10;99.90
58513;DHT22;44302;47.914;10.642;2022-10-31T18:46:26;12.00;99.90
58513;DHT22;44302;47.914;10.642;2022-10-31T18:48:52;11.90;99.90
58513;DHT22;44302;47.914;10.642;2022-10-31T18:51:17;12.00;99.90
58513;DHT22;44302;47.914;10.642;2022-10-31T18:53:55;11.90;99.90
58513;DHT22;44302;47.914;10.642;2022-10-31T18:56:22;11.80;99.90
58513;DHT22;44302;47.914;10.642;2022-10-31T18:58:48;11.80;99.90
58513;DHT22;44302;47.914;10.642;2022-10-31T19:01:14;11.80;99.90
58513;DHT22;44302;47.914;10.642;2022-10-31T19:03:41;11.80;99.90
58513;DHT22;44302;47.914;10.642;2022-10-31T19:06:07;11.90;99.90
58513;DHT22;44302;47.914;10.642;2022-10-31T19:08:35;11.90;99.90
58513;DHT22;44302;47.914;10.642;2022-10-31T19:11:07;12.00;99.90
58513;DHT22;44302;47.914;10.642;2022-10-31T19:13:37;12.00;99.90
58513;DHT22;44302;47.914;10.642;2022-10-31T19:16:11;12.00;99.90
58513;DHT22;44302;47.914;10.642;2022-10-31T19:18:38;12.00;99.90
58513;DHT22;44302;47.914;10.642;2022-10-31T19:21:09;12.00;99.90
58513;DHT22;44302;47.914;10.642;2022-10-31T19:23:35;12.10;99.90
58513;DHT22;44302;47.914;10.642;2022-10-31T19:28:32;12.00;99.90
58513;DHT22;44302;47.914;10.642;2022-10-31T19:30:58;12.00;99.90
58513;DHT22;44302;47.914;10.642;2022-10-31T19:33:24;12.00;99.90
58513;DHT22;44302;47.914;10.642;2022-10-31T19:36:15;11.90;99.90
58513;DHT22;44302;47.914;10.642;2022-10-31T19:38:45;11.90;99.90
58513;DHT22;44302;47.914;10.642;2022-10-31T19:41:21;11.90;99.90
58513;DHT22;44302;47.914;10.642;2022-10-31T19:43:48;11.90;99.90
58513;DHT22;44302;47.914;10.642;2022-10-31T19:46:15;11.90;99.90
58513;DHT22;44302;47.914;10.642;2022-10-31T19:48:41;11.80;99.90
58513;DHT22;44302;47.914;10.642;2022-10-31T19:51:09;11.80;99.90
58513;DHT22;44302;47.914;10.642;2022-10-31T19:53:36;11.70;99.90
58513;DHT22;44302;47.914;10.642;2022-10-31T19:56:02;11.70;99.90
58513;DHT22;44302;47.914;10.642;2022-10-31T19:58:30;11.70;99.90
58513;DHT22;44302;47.914;10.642;2022-10-31T20:00:56;11.70;99.90
58513;DHT22;44302;47.914;10.642;2022-10-31T20:03:22;11.50;99.90
58513;DHT22;44302;47.914;10.642;2022-10-31T20:05:48;11.40;99.90
58513;DHT22;44302;47.914;10.642;2022-10-31T20:08:17;11.30;99.90
58513;DHT22;44302;47.914;10.642;2022-10-31T20:10:54;11.30;99.90
58513;DHT22;44302;47.914;10.642;2022-10-31T20:13:20;11.20;99.90
58513;DHT22;44302;47.914;10.642;2022-10-31T20:15:46;11.20;99.90
58513;DHT22;44302;47.914;10.642;2022-10-31T20:18:11;11.10;99.90
58513;DHT22;44302;47.914;10.642;2022-10-31T20:20:37;11.10;99.90
58513;DHT22;44302;47.914;10.642;2022-10-31T20:23:02;11.10;99.90
58513;DHT22;44302;47.914;10.642;2022-10-31T20:25:28;11.10;99.90
58513;DHT22;44302;47.914;10.642;2022-10-31T20:27:56;11.20;99.90
58513;DHT22;44302;47.914;10.642;2022-10-31T20:30:22;11.20;99.90
58513;DHT22;44302;47.914;10.642;2022-10-31T20:32:47;11.20;99.90
58513;DHT22;44302;47.914;10.642;2022-10-31T20:35:13;11.20;99.90
58513;DHT22;44302;47.914;10.642;2022-10-31T20:37:39;11.20;99.90
58513;DHT22;44302;47.914;10.642;2022-10-31T20:40:05;11.20;99.90
58513;DHT22;44302;47.914;10.642;2022-10-31T20:42:31;11.10;99.90
58513;DHT22;44302;47.914;10.642;2022-10-31T20:47:22;11.10;99.90
58513;DHT22;44302;47.914;10.642;2022-10-31T20:52:14;11.10;99.90
